Wetterdaten: Woche 14.11.16 - 20.11.16 (KW46)
Datum Zeit Temp. A. Feuchte A. Luftdruck Regen Wind Richtung Sonnenschein ET UV Solar Taupunkt Windchill Windben Empfang
14.11.2016 00:00 -2,7 C 91 % 1031,0 hPa 0,0 l/m 9,8 km/h (2 Bft) NO 0,00 h 0,000 mm 0,0 UV-I 0 W/m -4,0 C -6,1 C 15,1 km/h (3 Bft) 97,91 %
14.11.2016 01:00 -2,9 C 92 % 1031,1 hPa 0,0 l/m 7,0 km/h (2 Bft) NO 0,00 h 0,000 mm 0,0 UV-I 0 W/m -4,0 C -3,7 C 10,8 km/h (2 Bft) 98,84 %
14.11.2016 02:00 -3,0 C 92 % 1031,1 hPa 0,0 l/m 7,9 km/h (2 Bft) O-NO 0,00 h 0,000 mm 0,0 UV-I 0 W/m -4,2 C -4,8 C 12,3 km/h (3 Bft) 97,92 %
14.11.2016 03:00 -3,1 C 92 % 1031,2 hPa 0,0 l/m 8,3 km/h (2 Bft) NO 0,00 h 0,000 mm 0,0 UV-I 0 W/m -4,2 C -5,2 C 13,2 km/h (3 Bft) 98,49 %
14.11.2016 04:00 -3,3 C 92 % 1031,5 hPa 0,0 l/m 7,6 km/h (2 Bft) NO 0,00 h 0,000 mm 0,0 UV-I 0 W/m -4,4 C -4,8 C 11,6 km/h (2 Bft) 98,30 %
14.11.2016 05:00 -3,5 C 93 % 1031,8 hPa 0,0 l/m 8,6 km/h (2 Bft) O-NO 0,00 h 0,000 mm 0,0 UV-I 0 W/m -4,5 C -6,0 C 13,1 km/h (3 Bft) 98,21 %
14.11.2016 06:00 -3,7 C 93 % 1032,2 hPa 0,0 l/m 6,3 km/h (2 Bft) O-NO 0,00 h 0,000 mm 0,0 UV-I 4 W/m -4,7 C -4,4 C 9,0 km/h (2 Bft) 98,74 %
14.11.2016 07:00 -3,9 C 93 % 1032,7 hPa 0,0 l/m 6,2 km/h (2 Bft) O-NO 0,53 h 0,000 mm 0,0 UV-I 41 W/m -4,8 C -4,6 C 9,3 km/h (2 Bft) 98,60 %
14.11.2016 08:00 -2,6 C 91 % 1033,2 hPa 0,0 l/m 7,7 km/h (2 Bft) O-NO 1,00 h 0,025 mm 0,0 UV-I 172 W/m -3,9 C -4,1 C 12,3 km/h (3 Bft) 98,74 %
14.11.2016 09:00 -0,9 C 88 % 1033,4 hPa 0,0 l/m 14,9 km/h (3 Bft) O-NO 1,00 h 0,051 mm 0,5 UV-I 287 W/m -2,6 C -7,8 C 21,5 km/h (4 Bft) 99,22 %
14.11.2016 10:00 0,4 C 86 % 1033,7 hPa 0,0 l/m 17,6 km/h (3 Bft) O-NO 1,00 h 0,102 mm 0,7 UV-I 372 W/m -1,7 C -7,9 C 24,5 km/h (4 Bft) 98,83 %
14.11.2016 11:00 1,6 C 82 % 1033,6 hPa 0,0 l/m 20,6 km/h (4 Bft) O-NO 1,00 h 0,152 mm 0,9 UV-I 429 W/m -1,0 C -7,8 C 28,3 km/h (4 Bft) 98,22 %
14.11.2016 12:00 1,6 C 82 % 1033,4 hPa 0,2 l/m 20,3 km/h (4 Bft) O-NO 0,47 h 0,178 mm 0,7 UV-I 239 W/m -1,2 C -7,6 C 29,1 km/h (5 Bft) 98,56 %
14.11.2016 13:00 1,9 C 78 % 1033,1 hPa 0,0 l/m 20,9 km/h (4 Bft) O-NO 0,43 h 0,102 mm 0,6 UV-I 234 W/m -1,5 C -7,6 C 28,8 km/h (4 Bft) 98,78 %
14.11.2016 14:00 1,7 C 75 % 1033,0 hPa 0,0 l/m 19,5 km/h (3 Bft) O-NO 0,47 h 0,101 mm 0,0 UV-I 134 W/m -2,2 C -7,2 C 27,6 km/h (4 Bft) 98,17 %
14.11.2016 15:00 1,8 C 75 % 1033,1 hPa 0,0 l/m 15,3 km/h (3 Bft) O-NO 1,00 h 0,076 mm 0,0 UV-I 101 W/m -2,2 C -4,9 C 22,2 km/h (4 Bft) 99,32 %
14.11.2016 16:00 0,8 C 79 % 1032,9 hPa 0,0 l/m 10,1 km/h (2 Bft) O-NO 0,27 h 0,077 mm 0,0 UV-I 14 W/m -2,5 C -2,4 C 15,7 km/h (3 Bft) 99,01 %
14.11.2016 17:00 -0,1 C 84 % 1033,1 hPa 0,0 l/m 5,8 km/h (2 Bft) O-NO 0,00 h 0,025 mm 0,0 UV-I 0 W/m -2,5 C -0,2 C 8,5 km/h (2 Bft) 98,40 %
14.11.2016 18:00 -0,8 C 87 % 1033,1 hPa 0,0 l/m 5,1 km/h (1 Bft) NO 0,00 h 0,000 mm 0,0 UV-I 0 W/m -2,6 C -1,0 C 7,7 km/h (2 Bft) 98,91 %
14.11.2016 19:00 -1,2 C 91 % 1033,4 hPa 0,0 l/m 5,7 km/h (1 Bft) NO 0,00 h 0,000 mm 0,0 UV-I 0 W/m -2,5 C -1,4 C 8,4 km/h (2 Bft) 97,32 %
14.11.2016 20:00 -1,5 C 91 % 1033,6 hPa 0,0 l/m 3,5 km/h (1 Bft) NO 0,00 h 0,000 mm 0,0 UV-I 0 W/m -2,7 C -1,5 C 5,3 km/h (1 Bft) 98,36 %
14.11.2016 21:00 -1,8 C 92 % 1033,8 hPa 0,0 l/m 3,3 km/h (1 Bft) O 0,00 h 0,000 mm 0,0 UV-I 0 W/m -2,9 C -1,8 C 5,3 km/h (1 Bft) 98,02 %
14.11.2016 22:00 -2,5 C 94 % 1033,6 hPa 0,0 l/m 1,9 km/h (1 Bft) O-NO 0,00 h 0,000 mm 0,0 UV-I 0 W/m -3,4 C -2,5 C 3,8 km/h (1 Bft) 98,58 %
14.11.2016 23:00 -3,1 C 95 % 1033,2 hPa 0,0 l/m 1,5 km/h (1 Bft) SO 0,00 h 0,000 mm 0,0 UV-I 0 W/m -3,8 C -3,1 C 2,7 km/h (1 Bft) 99,09 %
15.11.2016 00:00 -3,5 C 96 % 1032,8 hPa 0,0 l/m 0,9 km/h (0 Bft) S-SW 0,00 h 0,000 mm 0,0 UV-I 0 W/m -4,1 C -3,5 C 2,2 km/h (1 Bft) 97,96 %
15.11.2016 01:00 -3,8 C 96 % 1032,6 hPa 0,0 l/m 1,4 km/h (1 Bft) S-SW 0,00 h 0,000 mm 0,0 UV-I 0 W/m -4,4 C -3,8 C 2,5 km/h (1 Bft) 99,65 %
15.11.2016 02:00 -4,1 C 96 % 1032,5 hPa 0,0 l/m 0,8 km/h (0 Bft) S-SW 0,00 h 0,000 mm 0,0 UV-I 0 W/m -4,7 C -4,1 C 1,9 km/h (1 Bft) 97,83 %
15.11.2016 03:00 -4,4 C 96 % 1032,7 hPa 0,0 l/m 1,7 km/h (1 Bft) S-SW 0,00 h 0,000 mm 0,0 UV-I 0 W/m -5,0 C -4,4 C 3,4 km/h (1 Bft) 99,44 %
15.11.2016 04:00 -4,3 C 95 % 1032,5 hPa 0,0 l/m 1,3 km/h (1 Bft) S 0,00 h 0,000 mm 0,0 UV-I 0 W/m -5,0 C -4,3 C 3,4 km/h (1 Bft) 98,09 %
15.11.2016 05:00 -4,8 C 95 % 1032,4 hPa 0,0 l/m 0,5 km/h (0 Bft) S 0,00 h 0,000 mm 0,0 UV-I 0 W/m -5,5 C -4,8 C 1,2 km/h (1 Bft) 98,92 %
15.11.2016 06:00 -4,6 C 95 % 1032,7 hPa 0,0 l/m 1,1 km/h (1 Bft) S 0,00 h 0,000 mm 0,0 UV-I 0 W/m -5,2 C -4,6 C 2,5 km/h (1 Bft) 98,28 %
15.11.2016 07:00 -3,2 C 95 % 1032,8 hPa 0,0 l/m 1,2 km/h (1 Bft) S 0,00 h 0,000 mm 0,0 UV-I 13 W/m -3,9 C -3,2 C 3,0 km/h (1 Bft) 98,98 %
15.11.2016 08:00 -2,5 C 95 % 1033,0 hPa 0,0 l/m 0,5 km/h (0 Bft) S-SW 0,00 h 0,000 mm 0,0 UV-I 47 W/m -3,2 C -2,5 C 1,9 km/h (1 Bft) 98,06 %
15.11.2016 09:00 -1,6 C 95 % 1032,9 hPa 0,0 l/m 0,7 km/h (0 Bft) S-SW 0,00 h 0,025 mm 0,0 UV-I 114 W/m -2,3 C -1,6 C 2,1 km/h (1 Bft) 98,55 %
15.11.2016 10:00 -0,7 C 93 % 1033,0 hPa 0,0 l/m 1,1 km/h (1 Bft) SW 0,00 h 0,026 mm 0,5 UV-I 132 W/m -1,8 C -0,7 C 2,6 km/h (1 Bft) 98,31 %
15.11.2016 11:00 0,1 C 90 % 1032,6 hPa 0,2 l/m 3,1 km/h (1 Bft) W-SW 0,00 h 0,051 mm 0,6 UV-I 174 W/m -1,3 C 0,1 C 5,2 km/h (1 Bft) 98,82 %
15.11.2016 12:00 0,6 C 88 % 1031,8 hPa 0,0 l/m 3,0 km/h (1 Bft) W 0,00 h 0,050 mm 0,5 UV-I 150 W/m -1,2 C 0,6 C 5,5 km/h (1 Bft) 98,12 %
15.11.2016 13:00 0,8 C 87 % 1031,5 hPa 0,0 l/m 1,3 km/h (1 Bft) NW 0,17 h 0,051 mm 0,5 UV-I 159 W/m -1,1 C 0,8 C 3,3 km/h (1 Bft) 98,87 %
15.11.2016 14:00 1,0 C 87 % 1030,9 hPa 0,0 l/m 0,3 km/h (0 Bft) N-NO 0,30 h 0,051 mm 0,0 UV-I 126 W/m -1,0 C 1,0 C 1,0 km/h (0 Bft) 98,65 %
15.11.2016 15:00 0,9 C 88 % 1030,3 hPa 0,0 l/m 1,1 km/h (1 Bft) N-NO 0,00 h 0,051 mm 0,0 UV-I 46 W/m -0,9 C 0,9 C 2,2 km/h (1 Bft) 98,49 %
15.11.2016 16:00 0,5 C 90 % 1029,9 hPa 0,0 l/m 0,2 km/h (0 Bft) N-NO 0,07 h 0,025 mm 0,0 UV-I 10 W/m -1,1 C 0,5 C 0,5 km/h (0 Bft) 99,66 %
15.11.2016 17:00 0,5 C 90 % 1029,9 hPa 0,0 l/m 0,3 km/h (0 Bft) N-NO 0,00 h 0,000 mm 0,0 UV-I 0 W/m -1,0 C 0,5 C 0,7 km/h (0 Bft) 97,61 %
15.11.2016 18:00 0,4 C 91 % 1029,7 hPa 0,0 l/m 0,2 km/h (0 Bft) NO 0,00 h 0,000 mm 0,0 UV-I 0 W/m -0,8 C 0,4 C 0,7 km/h (0 Bft) 99,28 %
15.11.2016 19:00 0,5 C 92 % 1029,4 hPa 0,0 l/m 1,4 km/h (1 Bft) S-SO 0,00 h 0,000 mm 0,0 UV-I 0 W/m -0,6 C 0,5 C 3,1 km/h (1 Bft) 98,33 %
15.11.2016 20:00 0,5 C 93 % 1029,0 hPa 0,0 l/m 0,1 km/h (0 Bft) S-SO 0,00 h 0,000 mm 0,0 UV-I 0 W/m -0,4 C 0,5 C 0,7 km/h (0 Bft) 99,00 %
15.11.2016 21:00 0,4 C 96 % 1028,5 hPa 0,6 l/m 0,4 km/h (0 Bft) S-SO 0,00 h 0,000 mm 0,0 UV-I 0 W/m -0,3 C 0,4 C 1,4 km/h (1 Bft) 97,93 %
15.11.2016 22:00 0,3 C 96 % 1028,0 hPa 0,2 l/m 0,4 km/h (0 Bft) W 0,00 h 0,000 mm 0,0 UV-I 0 W/m -0,3 C 0,3 C 1,5 km/h (1 Bft) 99,54 %
15.11.2016 23:00 0,6 C 97 % 1027,6 hPa 0,2 l/m 0,5 km/h (0 Bft) W 0,00 h 0,000 mm 0,0 UV-I 0 W/m 0,1 C 0,6 C 1,4 km/h (1 Bft) 98,09 %
16.11.2016 00:00 0,7 C 97 % 1027,2 hPa 0,2 l/m 0,7 km/h (0 Bft) SW 0,00 h 0,000 mm 0,0 UV-I 0 W/m 0,3 C 0,7 C 2,1 km/h (1 Bft) 99,43 %
16.11.2016 01:00 1,0 C 97 % 1026,6 hPa 1,0 l/m 0,8 km/h (0 Bft) S-SW 0,00 h 0,000 mm 0,0 UV-I 0 W/m 0,6 C 1,0 C 2,2 km/h (1 Bft) 98,59 %
16.11.2016 02:00 1,3 C 98 % 1026,4 hPa 0,4 l/m 0,5 km/h (0 Bft) S-SW 0,00 h 0,000 mm 0,0 UV-I 0 W/m 1,0 C 1,3 C 1,4 km/h (1 Bft) 99,44 %
16.11.2016 03:00 1,5 C 98 % 1025,9 hPa 0,4 l/m 0,7 km/h (0 Bft) S-SW 0,00 h 0,000 mm 0,0 UV-I 0 W/m 1,2 C 1,5 C 2,1 km/h (1 Bft) 98,19 %
16.11.2016 04:00 1,8 C 98 % 1025,4 hPa 0,6 l/m 0,3 km/h (0 Bft) S-SW 0,00 h 0,000 mm 0,0 UV-I 0 W/m 1,6 C 1,8 C 1,3 km/h (1 Bft) 99,10 %
16.11.2016 05:00 2,3 C 98 % 1024,8 hPa 1,4 l/m 0,7 km/h (0 Bft) S-SW 0,00 h 0,000 mm 0,0 UV-I 0 W/m 2,0 C 2,3 C 2,0 km/h (1 Bft) 98,65 %
16.11.2016 06:00 3,6 C 99 % 1024,3 hPa 1,6 l/m 4,2 km/h (1 Bft) SW 0,00 h 0,000 mm 0,0 UV-I 0 W/m 3,4 C 3,6 C 6,1 km/h (2 Bft) 98,76 %
16.11.2016 07:00 4,4 C 99 % 1024,0 hPa 0,8 l/m 1,4 km/h (1 Bft) SW 0,00 h 0,000 mm 0,0 UV-I 11 W/m 4,2 C 4,4 C 2,5 km/h (1 Bft) 99,28 %
16.11.2016 08:00 4,4 C 99 % 1023,8 hPa 0,2 l/m 0,1 km/h (0 Bft) N 0,00 h 0,000 mm 0,0 UV-I 28 W/m 4,3 C 4,4 C 0,7 km/h (0 Bft) 97,75 %
16.11.2016 09:00 4,9 C 99 % 1023,4 hPa 0,8 l/m 0,0 km/h (0 Bft) N 0,00 h 0,000 mm 0,0 UV-I 50 W/m 4,7 C 4,9 C 0,1 km/h (0 Bft) 98,98 %
16.11.2016 10:00 5,0 C 99 % 1023,2 hPa 1,6 l/m 1,3 km/h (1 Bft) SW 0,00 h 0,025 mm 0,0 UV-I 48 W/m 4,9 C 5,0 C 2,3 km/h (1 Bft) 98,03 %
16.11.2016 11:00 5,4 C 99 % 1022,5 hPa 0,8 l/m 0,2 km/h (0 Bft) SW 0,00 h 0,026 mm 0,0 UV-I 70 W/m 5,2 C 5,4 C 1,1 km/h (1 Bft) 99,29 %
16.11.2016 12:00 6,0 C 99 % 1021,7 hPa 0,2 l/m 0,4 km/h (0 Bft) W-SW 0,00 h 0,025 mm 0,0 UV-I 80 W/m 5,8 C 6,0 C 1,3 km/h (1 Bft) 97,75 %
16.11.2016 13:00 6,4 C 99 % 1021,0 hPa 0,2 l/m 0,3 km/h (0 Bft) W-SW 0,00 h 0,026 mm 0,0 UV-I 70 W/m 6,2 C 6,4 C 1,5 km/h (1 Bft) 99,58 %
16.11.2016 14:00 6,6 C 99 % 1020,4 hPa 0,0 l/m 0,9 km/h (0 Bft) W-SW 0,00 h 0,025 mm 0,0 UV-I 47 W/m 6,5 C 6,6 C 2,5 km/h (1 Bft) 98,03 %
16.11.2016 15:00 6,9 C 99 % 1019,8 hPa 0,4 l/m 1,6 km/h (1 Bft) SW 0,00 h 0,025 mm 0,0 UV-I 33 W/m 6,7 C 6,9 C 3,0 km/h (1 Bft) 99,07 %
16.11.2016 16:00 6,8 C 99 % 1019,5 hPa 0,4 l/m 0,8 km/h (0 Bft) SW 0,00 h 0,026 mm 0,0 UV-I 7 W/m 6,7 C 6,8 C 1,8 km/h (1 Bft) 98,03 %
16.11.2016 17:00 6,6 C 99 % 1019,1 hPa 1,2 l/m 1,0 km/h (0 Bft) SW 0,00 h 0,000 mm 0,0 UV-I 0 W/m 6,5 C 6,6 C 1,8 km/h (1 Bft) 99,13 %
16.11.2016 18:00 6,6 C 99 % 1018,9 hPa 0,8 l/m 2,0 km/h (1 Bft) N-NO 0,00 h 0,000 mm 0,0 UV-I 0 W/m 6,4 C 6,6 C 3,3 km/h (1 Bft) 98,36 %
16.11.2016 19:00 6,5 C 99 % 1018,5 hPa 1,0 l/m 0,6 km/h (0 Bft) N-NO 0,00 h 0,000 mm 0,0 UV-I 0 W/m 6,4 C 6,5 C 1,8 km/h (1 Bft) 99,43 %
16.11.2016 20:00 7,5 C 99 % 1018,2 hPa 0,2 l/m 3,4 km/h (1 Bft) S-SW 0,00 h 0,000 mm 0,0 UV-I 0 W/m 7,4 C 7,5 C 5,1 km/h (1 Bft) 98,51 %
16.11.2016 21:00 7,7 C 99 % 1017,8 hPa 0,4 l/m 3,1 km/h (1 Bft) N-NO 0,00 h 0,000 mm 0,0 UV-I 0 W/m 7,6 C 7,6 C 5,2 km/h (1 Bft) 98,88 %
16.11.2016 22:00 7,9 C 99 % 1017,7 hPa 1,0 l/m 5,8 km/h (2 Bft) SW 0,00 h 0,000 mm 0,0 UV-I 0 W/m 7,8 C 7,2 C 9,0 km/h (2 Bft) 98,97 %
16.11.2016 23:00 9,1 C 99 % 1017,5 hPa 0,2 l/m 8,5 km/h (2 Bft) W-SW 0,00 h 0,000 mm 0,0 UV-I 0 W/m 9,0 C 7,6 C 13,2 km/h (3 Bft) 98,36 %
17.11.2016 00:00 9,2 C 99 % 1017,1 hPa 0,0 l/m 6,3 km/h (2 Bft) SW 0,00 h 0,000 mm 0,0 UV-I 0 W/m 9,0 C 8,9 C 9,6 km/h (2 Bft) 99,33 %
17.11.2016 01:00 9,2 C 99 % 1016,6 hPa 0,0 l/m 5,9 km/h (2 Bft) S-SW 0,00 h 0,000 mm 0,0 UV-I 0 W/m 9,1 C 9,1 C 9,5 km/h (2 Bft) 98,46 %
17.11.2016 02:00 9,2 C 99 % 1016,2 hPa 0,0 l/m 5,0 km/h (1 Bft) SW 0,00 h 0,000 mm 0,0 UV-I 0 W/m 9,1 C 9,1 C 7,9 km/h (2 Bft) 99,58 %
17.11.2016 03:00 8,9 C 98 % 1015,9 hPa 0,0 l/m 4,2 km/h (1 Bft) SW 0,00 h 0,000 mm 0,0 UV-I 0 W/m 8,7 C 8,9 C 6,2 km/h (2 Bft) 98,40 %
17.11.2016 04:00 9,0 C 98 % 1015,7 hPa 0,0 l/m 2,5 km/h (1 Bft) S-SW 0,00 h 0,000 mm 0,0 UV-I 0 W/m 8,7 C 9,0 C 4,7 km/h (1 Bft) 99,52 %
17.11.2016 05:00 8,9 C 98 % 1015,4 hPa 0,0 l/m 3,9 km/h (1 Bft) S-SW 0,00 h 0,000 mm 0,0 UV-I 0 W/m 8,6 C 8,9 C 7,1 km/h (2 Bft) 98,23 %
17.11.2016 06:00 8,8 C 97 % 1015,1 hPa 0,0 l/m 4,6 km/h (1 Bft) SW 0,00 h 0,000 mm 0,0 UV-I 0 W/m 8,4 C 8,8 C 6,9 km/h (2 Bft) 99,32 %
17.11.2016 07:00 8,7 C 97 % 1015,1 hPa 0,2 l/m 2,4 km/h (1 Bft) S-SW 0,00 h 0,000 mm 0,0 UV-I 11 W/m 8,2 C 8,7 C 4,5 km/h (1 Bft) 97,88 %
17.11.2016 08:00 8,8 C 97 % 1014,7 hPa 0,0 l/m 1,2 km/h (1 Bft) S-SW 0,00 h 0,000 mm 0,0 UV-I 46 W/m 8,3 C 8,8 C 2,9 km/h (1 Bft) 99,40 %
17.11.2016 09:00 9,1 C 98 % 1014,7 hPa 0,0 l/m 0,7 km/h (0 Bft) S-SO 0,00 h 0,025 mm 0,0 UV-I 73 W/m 8,8 C 9,1 C 1,7 km/h (1 Bft) 98,49 %
17.11.2016 10:00 9,3 C 98 % 1015,0 hPa 0,0 l/m 1,3 km/h (1 Bft) SW 0,00 h 0,026 mm 0,0 UV-I 50 W/m 9,0 C 9,3 C 2,9 km/h (1 Bft) 98,95 %
17.11.2016 11:00 9,3 C 98 % 1014,9 hPa 0,2 l/m 2,0 km/h (1 Bft) SW 0,00 h 0,025 mm 0,0 UV-I 69 W/m 9,0 C 9,3 C 3,9 km/h (1 Bft) 98,29 %
17.11.2016 12:00 9,9 C 97 % 1014,2 hPa 0,6 l/m 3,2 km/h (1 Bft) S-SO 0,00 h 0,026 mm 0,0 UV-I 82 W/m 9,5 C 9,9 C 6,9 km/h (2 Bft) 99,17 %
17.11.2016 13:00 10,5 C 96 % 1013,5 hPa 0,0 l/m 3,1 km/h (1 Bft) S 0,00 h 0,050 mm 0,3 UV-I 102 W/m 9,9 C 10,5 C 6,1 km/h (2 Bft) 98,35 %
17.11.2016 14:00 11,2 C 94 % 1013,2 hPa 0,2 l/m 1,5 km/h (1 Bft) S-SW 0,27 h 0,051 mm 0,0 UV-I 107 W/m 10,3 C 11,2 C 3,0 km/h (1 Bft) 98,50 %
17.11.2016 15:00 10,8 C 95 % 1013,4 hPa 0,0 l/m 1,0 km/h (0 Bft) S-SW 0,00 h 0,051 mm 0,0 UV-I 18 W/m 10,0 C 10,8 C 2,0 km/h (1 Bft) 99,10 %
17.11.2016 16:00 10,3 C 97 % 1013,3 hPa 0,0 l/m 2,1 km/h (1 Bft) S-SO 0,00 h 0,000 mm 0,0 UV-I 8 W/m 9,9 C 10,3 C 4,0 km/h (1 Bft) 98,77 %
17.11.2016 17:00 10,1 C 96 % 1013,2 hPa 0,0 l/m 1,4 km/h (1 Bft) S-SO 0,00 h 0,000 mm 0,0 UV-I 0 W/m 9,4 C 10,1 C 3,1 km/h (1 Bft) 99,27 %
17.11.2016 18:00 9,3 C 97 % 1012,9 hPa 0,0 l/m 1,1 km/h (1 Bft) S-SO 0,00 h 0,000 mm 0,0 UV-I 0 W/m 8,8 C 9,3 C 2,2 km/h (1 Bft) 98,11 %
17.11.2016 19:00 9,1 C 97 % 1012,7 hPa 0,0 l/m 3,2 km/h (1 Bft) S-SO 0,00 h 0,000 mm 0,0 UV-I 0 W/m 8,6 C 9,1 C 5,8 km/h (2 Bft) 99,28 %
17.11.2016 20:00 9,2 C 93 % 1012,5 hPa 0,0 l/m 2,2 km/h (1 Bft) S 0,00 h 0,000 mm 0,0 UV-I 0 W/m 8,2 C 9,2 C 4,9 km/h (1 Bft) 98,10 %
17.11.2016 21:00 7,9 C 95 % 1012,3 hPa 0,0 l/m 2,6 km/h (1 Bft) S 0,00 h 0,000 mm 0,0 UV-I 0 W/m 7,1 C 7,9 C 4,2 km/h (1 Bft) 99,57 %
17.11.2016 22:00 6,3 C 97 % 1011,8 hPa 0,0 l/m 1,0 km/h (0 Bft) O-NO 0,00 h 0,000 mm 0,0 UV-I 0 W/m 5,8 C 6,3 C 2,2 km/h (1 Bft) 97,88 %
17.11.2016 23:00 5,2 C 98 % 1011,5 hPa 0,0 l/m 2,4 km/h (1 Bft) NO 0,00 h 0,000 mm 0,0 UV-I 0 W/m 4,9 C 5,2 C 4,2 km/h (1 Bft) 99,52 %
18.11.2016 00:00 4,1 C 98 % 1011,3 hPa 0,0 l/m 1,0 km/h (0 Bft) N-NW 0,00 h 0,000 mm 0,0 UV-I 0 W/m 3,8 C 4,1 C 2,5 km/h (1 Bft) 98,71 %
18.11.2016 01:00 3,0 C 98 % 1010,7 hPa 0,0 l/m 0,2 km/h (0 Bft) N-NW 0,00 h 0,000 mm 0,0 UV-I 0 W/m 2,7 C 3,0 C 0,4 km/h (0 Bft) 98,45 %
18.11.2016 02:00 3,0 C 99 % 1010,3 hPa 0,0 l/m 0,2 km/h (0 Bft) N-NW 0,00 h 0,000 mm 0,0 UV-I 0 W/m 2,8 C 3,0 C 1,0 km/h (0 Bft) 98,76 %
18.11.2016 03:00 2,9 C 99 % 1010,2 hPa 0,2 l/m 2,3 km/h (1 Bft) SW 0,00 h 0,000 mm 0,0 UV-I 0 W/m 2,7 C 2,9 C 3,9 km/h (1 Bft) 98,72 %
18.11.2016 04:00 2,8 C 99 % 1010,2 hPa 0,0 l/m 1,9 km/h (1 Bft) S-SW 0,00 h 0,000 mm 0,0 UV-I 0 W/m 2,7 C 2,8 C 3,9 km/h (1 Bft) 98,96 %
18.11.2016 05:00 2,6 C 99 % 1010,5 hPa 0,0 l/m 2,0 km/h (1 Bft) S-SW 0,00 h 0,000 mm 0,0 UV-I 0 W/m 2,5 C 2,6 C 3,9 km/h (1 Bft) 98,24 %
18.11.2016 06:00 2,1 C 99 % 1010,3 hPa 0,0 l/m 4,7 km/h (1 Bft) SO 0,00 h 0,000 mm 0,0 UV-I 0 W/m 1,9 C 1,4 C 7,8 km/h (2 Bft) 99,05 %
18.11.2016 07:00 2,8 C 99 % 1010,2 hPa 0,0 l/m 9,7 km/h (2 Bft) O-NO 0,00 h 0,000 mm 0,0 UV-I 10 W/m 2,6 C -0,1 C 14,4 km/h (3 Bft) 98,37 %
18.11.2016 08:00 3,6 C 99 % 1009,6 hPa 0,0 l/m 17,5 km/h (3 Bft) O-NO 0,00 h 0,000 mm 0,0 UV-I 34 W/m 3,5 C -3,8 C 24,1 km/h (4 Bft) 98,94 %
18.11.2016 09:00 3,7 C 99 % 1008,9 hPa 0,0 l/m 16,7 km/h (3 Bft) O-NO 0,00 h 0,025 mm 0,0 UV-I 76 W/m 3,6 C -3,3 C 22,8 km/h (4 Bft) 97,92 %
18.11.2016 10:00 4,1 C 99 % 1008,5 hPa 0,0 l/m 12,6 km/h (3 Bft) O-NO 0,00 h 0,026 mm 0,0 UV-I 90 W/m 4,0 C -0,6 C 18,4 km/h (3 Bft) 99,42 %
18.11.2016 11:00 4,2 C 99 % 1008,0 hPa 0,0 l/m 11,8 km/h (2 Bft) NO 0,00 h 0,025 mm 0,0 UV-I 101 W/m 4,0 C -0,0 C 17,2 km/h (3 Bft) 97,65 %
18.11.2016 12:00 4,5 C 99 % 1007,5 hPa 0,0 l/m 7,0 km/h (2 Bft) O-NO 0,00 h 0,051 mm 0,0 UV-I 98 W/m 4,3 C 3,2 C 11,6 km/h (2 Bft) 99,26 %
18.11.2016 13:00 4,7 C 99 % 1007,2 hPa 0,0 l/m 2,1 km/h (1 Bft) N-NO 0,00 h 0,051 mm 0,0 UV-I 73 W/m 4,6 C 4,7 C 4,4 km/h (1 Bft) 98,07 %
18.11.2016 14:00 4,6 C 99 % 1006,8 hPa 0,0 l/m 4,3 km/h (1 Bft) O-SO 0,00 h 0,025 mm 0,0 UV-I 58 W/m 4,5 C 4,5 C 7,6 km/h (2 Bft) 99,42 %
18.11.2016 15:00 4,6 C 99 % 1006,9 hPa 0,0 l/m 2,3 km/h (1 Bft) NO 0,00 h 0,026 mm 0,0 UV-I 23 W/m 4,4 C 4,5 C 4,6 km/h (1 Bft) 98,16 %
18.11.2016 16:00 4,6 C 99 % 1007,6 hPa 0,0 l/m 1,1 km/h (1 Bft) NO 0,00 h 0,000 mm 0,0 UV-I 6 W/m 4,4 C 4,6 C 2,7 km/h (1 Bft) 99,21 %
18.11.2016 17:00 4,6 C 99 % 1008,7 hPa 0,0 l/m 2,9 km/h (1 Bft) S 0,00 h 0,000 mm 0,0 UV-I 0 W/m 4,5 C 4,6 C 5,2 km/h (1 Bft) 97,09 %
18.11.2016 18:00 4,4 C 99 % 1009,5 hPa 0,0 l/m 4,7 km/h (1 Bft) S-SW 0,00 h 0,000 mm 0,0 UV-I 0 W/m 4,2 C 4,1 C 8,7 km/h (2 Bft) 99,67 %
18.11.2016 19:00 4,2 C 99 % 1010,2 hPa 0,0 l/m 1,8 km/h (1 Bft) S-SW 0,00 h 0,000 mm 0,0 UV-I 0 W/m 4,1 C 4,2 C 3,5 km/h (1 Bft) 97,62 %
18.11.2016 20:00 4,0 C 99 % 1010,8 hPa 0,0 l/m 1,3 km/h (1 Bft) S-SW 0,00 h 0,000 mm 0,0 UV-I 0 W/m 3,8 C 4,0 C 2,7 km/h (1 Bft) 99,71 %
18.11.2016 21:00 3,7 C 99 % 1012,3 hPa 0,0 l/m 1,4 km/h (1 Bft) W 0,00 h 0,000 mm 0,0 UV-I 0 W/m 3,5 C 3,6 C 3,5 km/h (1 Bft) 98,23 %
18.11.2016 22:00 4,2 C 99 % 1013,4 hPa 0,0 l/m 3,0 km/h (1 Bft) W-NW 0,00 h 0,000 mm 0,0 UV-I 0 W/m 4,1 C 4,2 C 5,2 km/h (1 Bft) 99,21 %
18.11.2016 23:00 4,4 C 99 % 1013,5 hPa 0,0 l/m 3,3 km/h (1 Bft) S-SW 0,00 h 0,000 mm 0,0 UV-I 0 W/m 4,2 C 4,4 C 6,2 km/h (2 Bft) 98,08 %
19.11.2016 00:00 5,4 C 99 % 1013,8 hPa 0,0 l/m 2,9 km/h (1 Bft) S 0,00 h 0,000 mm 0,0 UV-I 0 W/m 5,3 C 5,4 C 5,7 km/h (1 Bft) 99,41 %
19.11.2016 01:00 5,9 C 99 % 1013,7 hPa 0,0 l/m 2,8 km/h (1 Bft) S 0,00 h 0,000 mm 0,0 UV-I 0 W/m 5,7 C 5,9 C 4,9 km/h (1 Bft) 98,31 %
19.11.2016 02:00 5,1 C 99 % 1013,6 hPa 0,0 l/m 5,7 km/h (1 Bft) N-NO 0,00 h 0,000 mm 0,0 UV-I 0 W/m 5,0 C 4,9 C 8,2 km/h (2 Bft) 99,47 %
19.11.2016 03:00 4,9 C 99 % 1013,0 hPa 0,0 l/m 6,3 km/h (2 Bft) O-NO 0,00 h 0,000 mm 0,0 UV-I 0 W/m 4,7 C 4,2 C 9,1 km/h (2 Bft) 98,60 %
19.11.2016 04:00 4,7 C 99 % 1012,5 hPa 0,0 l/m 6,9 km/h (2 Bft) O-NO 0,00 h 0,000 mm 0,0 UV-I 0 W/m 4,5 C 4,0 C 10,3 km/h (2 Bft) 99,08 %
19.11.2016 05:00 4,6 C 99 % 1012,1 hPa 0,0 l/m 4,5 km/h (1 Bft) NO 0,00 h 0,000 mm 0,0 UV-I 0 W/m 4,5 C 4,1 C 7,1 km/h (2 Bft) 98,69 %
19.11.2016 06:00 4,5 C 99 % 1011,2 hPa 0,0 l/m 0,6 km/h (0 Bft) NO 0,00 h 0,000 mm 0,0 UV-I 0 W/m 4,4 C 4,5 C 1,8 km/h (1 Bft) 98,98 %
19.11.2016 07:00 4,4 C 99 % 1010,3 hPa 0,0 l/m 0,4 km/h (0 Bft) NO 0,17 h 0,000 mm 0,0 UV-I 23 W/m 4,3 C 4,4 C 1,1 km/h (0 Bft) 98,52 %
19.11.2016 08:00 4,6 C 99 % 1009,9 hPa 0,0 l/m 2,4 km/h (1 Bft) SW 0,00 h 0,000 mm 0,0 UV-I 60 W/m 4,5 C 4,6 C 3,9 km/h (1 Bft) 98,80 %
19.11.2016 09:00 5,1 C 99 % 1009,6 hPa 0,0 l/m 4,4 km/h (1 Bft) SW 0,00 h 0,025 mm 0,0 UV-I 77 W/m 5,0 C 5,1 C 6,6 km/h (2 Bft) 98,78 %
19.11.2016 10:00 5,7 C 99 % 1009,0 hPa 0,0 l/m 1,5 km/h (1 Bft) W-SW 0,00 h 0,026 mm 0,0 UV-I 61 W/m 5,5 C 5,7 C 2,9 km/h (1 Bft) 98,92 %
19.11.2016 11:00 5,9 C 99 % 1008,4 hPa 0,0 l/m 2,5 km/h (1 Bft) SW 0,00 h 0,025 mm 0,0 UV-I 41 W/m 5,8 C 5,9 C 4,6 km/h (1 Bft) 99,06 %
19.11.2016 12:00 6,1 C 99 % 1008,2 hPa 0,0 l/m 5,6 km/h (1 Bft) SW 0,00 h 0,026 mm 0,0 UV-I 39 W/m 6,0 C 5,9 C 8,7 km/h (2 Bft) 98,55 %
19.11.2016 13:00 6,6 C 99 % 1008,7 hPa 0,0 l/m 9,2 km/h (2 Bft) W-SW 0,00 h 0,025 mm 0,0 UV-I 53 W/m 6,5 C 4,5 C 14,3 km/h (3 Bft) 98,95 %
19.11.2016 14:00 7,2 C 97 % 1009,1 hPa 0,0 l/m 8,1 km/h (2 Bft) SW 0,00 h 0,025 mm 0,0 UV-I 28 W/m 6,7 C 5,8 C 13,2 km/h (3 Bft) 98,14 %
19.11.2016 15:00 7,3 C 94 % 1010,2 hPa 0,0 l/m 15,9 km/h (3 Bft) W-SW 0,00 h 0,026 mm 0,0 UV-I 14 W/m 6,4 C 1,6 C 23,9 km/h (4 Bft) 99,42 %
19.11.2016 16:00 7,5 C 91 % 1011,5 hPa 0,2 l/m 18,3 km/h (3 Bft) W-SW 0,00 h 0,025 mm 0,0 UV-I 5 W/m 6,1 C 0,7 C 27,8 km/h (4 Bft) 97,98 %
19.11.2016 17:00 7,0 C 87 % 1013,0 hPa 0,0 l/m 19,4 km/h (3 Bft) W-SW 0,00 h 0,026 mm 0,0 UV-I 0 W/m 5,0 C -0,3 C 29,5 km/h (5 Bft) 99,37 %
19.11.2016 18:00 6,3 C 89 % 1014,4 hPa 0,0 l/m 18,1 km/h (3 Bft) SW 0,00 h 0,025 mm 0,0 UV-I 0 W/m 4,5 C -0,7 C 26,8 km/h (4 Bft) 97,60 %
19.11.2016 19:00 5,8 C 89 % 1015,3 hPa 0,2 l/m 17,2 km/h (3 Bft) W-SW 0,00 h 0,025 mm 0,0 UV-I 0 W/m 4,2 C -0,9 C 25,7 km/h (4 Bft) 99,33 %
19.11.2016 20:00 5,7 C 88 % 1015,7 hPa 0,0 l/m 10,8 km/h (2 Bft) SW 0,00 h 0,026 mm 0,0 UV-I 0 W/m 3,8 C 2,3 C 16,7 km/h (3 Bft) 98,18 %
19.11.2016 21:00 4,7 C 91 % 1015,4 hPa 0,0 l/m 2,1 km/h (1 Bft) S-SW 0,00 h 0,025 mm 0,0 UV-I 0 W/m 3,4 C 4,7 C 3,5 km/h (1 Bft) 99,77 %
19.11.2016 22:00 4,1 C 93 % 1015,1 hPa 0,0 l/m 3,5 km/h (1 Bft) NO 0,00 h 0,000 mm 0,0 UV-I 0 W/m 3,0 C 4,0 C 5,5 km/h (1 Bft) 98,33 %
19.11.2016 23:00 3,7 C 95 % 1014,6 hPa 0,0 l/m 8,2 km/h (2 Bft) O-NO 0,00 h 0,000 mm 0,0 UV-I 0 W/m 3,0 C 2,1 C 13,4 km/h (3 Bft) 98,32 %
20.11.2016 00:00 3,3 C 95 % 1013,9 hPa 0,0 l/m 5,7 km/h (1 Bft) O-NO 0,00 h 0,000 mm 0,0 UV-I 0 W/m 2,6 C 3,0 C 9,9 km/h (2 Bft) 96,27 %
20.11.2016 01:00 2,5 C 95 % 1013,1 hPa 0,0 l/m 4,7 km/h (1 Bft) NO 0,00 h 0,000 mm 0,0 UV-I 0 W/m 1,9 C 2,5 C 7,1 km/h (2 Bft) 98,47 %
20.11.2016 02:00 2,1 C 97 % 1012,6 hPa 0,0 l/m 5,2 km/h (1 Bft) O-NO 0,00 h 0,000 mm 0,0 UV-I 0 W/m 1,6 C 2,2 C 9,3 km/h (2 Bft) 99,71 %
20.11.2016 03:00 1,9 C 97 % 1011,8 hPa 0,0 l/m 5,3 km/h (1 Bft) O-NO 0,00 h 0,000 mm 0,0 UV-I 0 W/m 1,5 C 1,9 C 8,3 km/h (2 Bft) 98,25 %
20.11.2016 04:00 1,7 C 98 % 1010,9 hPa 0,0 l/m 6,7 km/h (2 Bft) O-NO 0,00 h 0,000 mm 0,0 UV-I 0 W/m 1,4 C 1,2 C 11,4 km/h (2 Bft) 99,49 %
20.11.2016 05:00 2,2 C 98 % 1010,4 hPa 0,0 l/m 7,9 km/h (2 Bft) NO 0,00 h 0,000 mm 0,0 UV-I 0 W/m 1,9 C 0,8 C 14,8 km/h (3 Bft) 98,47 %
20.11.2016 06:00 1,5 C 97 % 1010,6 hPa 0,0 l/m 1,6 km/h (1 Bft) N-NO 0,00 h 0,000 mm 0,0 UV-I 0 W/m 1,1 C 1,5 C 4,1 km/h (1 Bft) 99,63 %
20.11.2016 07:00 0,6 C 98 % 1010,8 hPa 0,0 l/m 1,7 km/h (1 Bft) S 0,08 h 0,000 mm 0,0 UV-I 11 W/m 0,3 C 0,6 C 5,2 km/h (1 Bft) 98,17 %
20.11.2016 08:00 0,2 C 98 % 1010,9 hPa 0,0 l/m 3,2 km/h (1 Bft) SW 0,00 h 0,000 mm 0,0 UV-I 55 W/m -0,1 C 0,2 C 6,1 km/h (2 Bft) 98,66 %
20.11.2016 09:00 0,3 C 98 % 1010,8 hPa 0,0 l/m 2,0 km/h (1 Bft) S 0,00 h 0,025 mm 0,0 UV-I 65 W/m 0,0 C 0,3 C 3,7 km/h (1 Bft) 97,72 %
20.11.2016 10:00 1,1 C 99 % 1010,9 hPa 0,0 l/m 1,1 km/h (1 Bft) S-SW 0,00 h 0,026 mm 0,4 UV-I 108 W/m 0,9 C 1,1 C 2,8 km/h (1 Bft) 99,03 %
20.11.2016 11:00 2,5 C 98 % 1010,6 hPa 0,0 l/m 0,6 km/h (0 Bft) S-SW 0,17 h 0,025 mm 0,5 UV-I 159 W/m 2,3 C 2,5 C 1,4 km/h (1 Bft) 98,46 %
20.11.2016 12:00 5,0 C 95 % 1010,2 hPa 0,0 l/m 3,1 km/h (1 Bft) NO 0,93 h 0,051 mm 0,6 UV-I 257 W/m 4,2 C 4,9 C 5,8 km/h (2 Bft) 98,39 %
20.11.2016 13:00 6,4 C 93 % 1009,8 hPa 0,0 l/m 3,1 km/h (1 Bft) N-NO 0,77 h 0,102 mm 0,5 UV-I 237 W/m 5,4 C 6,4 C 5,8 km/h (2 Bft) 99,46 %
20.11.2016 14:00 7,4 C 91 % 1009,5 hPa 0,2 l/m 6,5 km/h (2 Bft) O-NO 1,00 h 0,101 mm 0,0 UV-I 227 W/m 6,0 C 6,5 C 9,7 km/h (2 Bft) 98,46 %
20.11.2016 15:00 7,5 C 90 % 1009,5 hPa 0,0 l/m 4,9 km/h (1 Bft) O-NO 0,77 h 0,102 mm 0,0 UV-I 88 W/m 6,0 C 7,4 C 7,2 km/h (2 Bft) 99,37 %
20.11.2016 16:00 6,0 C 94 % 1009,5 hPa 0,0 l/m 2,3 km/h (1 Bft) O-NO 0,17 h 0,051 mm 0,0 UV-I 11 W/m 5,1 C 6,0 C 3,7 km/h (1 Bft) 98,59 %
20.11.2016 17:00 4,4 C 96 % 1009,7 hPa 0,0 l/m 1,0 km/h (0 Bft) NO 0,00 h 0,000 mm 0,0 UV-I 0 W/m 3,9 C 4,4 C 2,2 km/h (1 Bft) 98,65 %
20.11.2016 18:00 3,2 C 98 % 1010,1 hPa 0,0 l/m 1,3 km/h (1 Bft) S-SO 0,00 h 0,000 mm 0,0 UV-I 0 W/m 2,8 C 3,2 C 2,6 km/h (1 Bft) 98,44 %
20.11.2016 19:00 2,6 C 98 % 1010,6 hPa 0,0 l/m 2,3 km/h (1 Bft) S 0,00 h 0,000 mm 0,0 UV-I 0 W/m 2,3 C 2,6 C 3,7 km/h (1 Bft) 97,77 %
20.11.2016 20:00 2,3 C 98 % 1010,9 hPa 0,0 l/m 2,3 km/h (1 Bft) S-SO 0,00 h 0,000 mm 0,0 UV-I 0 W/m 2,0 C 2,3 C 3,9 km/h (1 Bft) 99,48 %
20.11.2016 21:00 1,6 C 98 % 1011,4 hPa 0,0 l/m 2,2 km/h (1 Bft) SW 0,00 h 0,000 mm 0,0 UV-I 0 W/m 1,3 C 1,6 C 3,6 km/h (1 Bft) 97,61 %
20.11.2016 22:00 1,1 C 98 % 1011,8 hPa 0,0 l/m 2,5 km/h (1 Bft) SW 0,00 h 0,000 mm 0,0 UV-I 0 W/m 0,8 C 1,1 C 3,9 km/h (1 Bft) 99,48 %
20.11.2016 23:00 1,0 C 98 % 1011,9 hPa 0,0 l/m 1,8 km/h (1 Bft) S 0,00 h 0,000 mm 0,0 UV-I 0 W/m 0,8 C 1,0 C 3,1 km/h (1 Bft) 98,56 %
Min-Datum _ 15.11.16 14.11.16 18.11.16 - 14.11.16 - - - - - 15.11.16 14.11.16 14.11.16 20.11.16
_ Min-Zeit 06:02 14:48 14:36 - 22:48 - - - - - 06:00 09:56 23:30 00:05
Minimum _ -5,1 C 72 % 1006,5 hPa - 0,0 km/h (0 Bft) - - - - - -5,8 C -11,2 C 0,0 km/h (0 Bft) 56,14 %
Max-Datum _ 17.11.16 16.11.16 14.11.16 16.11.16 14.11.16 - 20.11.16 14.11.16 14.11.16 14.11.16 17.11.16 17.11.16 19.11.16 14.11.16
_ Max-Zeit 14:30 06:12 10:40 06:02 13:26 - 07:30 12:00 11:08 13:18 14:16 14:40 17:14 00:00
Maximum _ 11,4 C 99 % 1033,9 hPa 1,6 l/m 25,9 km/h
O-NO (4 Bft)
- 0,08 h 0,178 mm 0,9 UV-I 476 W/m 10,4 C 11,4 C 41,8 km/h
W-SW (6 Bft)
100,00 %
Durchschnitt _ 3,4 C 95 % 1019,0 hPa #19,2 l/m 4,4 km/h (1 Bft) O-NO #12:01 h #2,693 mm 0,6 UV-I 87 W/m 2,7 C 2,5 C 7,1 km/h (2 Bft) 98,67 %